Terminal Aerodrome Forecast
Issued by NWS

Home | Current Version | Previous Version | Text Only | Print | Product List | Glossary On
Versions: 1 2 3 4 5 6 7 8 9 10 11 12 13 14 15
000
FTUS45 KFGZ 040416 AAA
TAFSEZ
TAF AMD
KSEZ 040416Z 0404/0424 19010G15KT P6SM FEW060 BKN120
     FM040700 VRB06KT P6SM BKN120
     FM041800 18010G16KT P6SM FEW060 BKN200
      AMD NOT SKED=

USA.gov is the U.S. government's official web portal to all federal, state and local government web resources and services.